Time;durP1;ratioP1;P1;durP2;ratioP2;P2;SDS_P1;SDS_P2;PMS_P1;PMS_P2;Temp;Humidity;BMP_temperature;BMP_pressure;BME280_temperature;BME280_humidity;BME280_pressure;Samples;Min_cycle;Max_cycle;Signal;HPM_P1;HPM_P2
2023/07/21 00:01:08;;;;;;;7.38;5.80;;;;;;;27.90;55.53;100222.44;5073201;28;20048;-54
2023/07/21 00:03:38;;;;;;;6.95;6.25;;;;;;;27.92;55.56;100225.81;5073178;28;20040;-53
2023/07/21 00:06:06;;;;;;;6.95;6.00;;;;;;;27.93;55.32;100222.88;5071695;28;20504;-55
2023/07/21 00:08:34;;;;;;;7.45;5.85;;;;;;;27.94;55.61;100238.16;5073816;28;20106;-56
2023/07/21 00:11:03;;;;;;;6.90;6.05;;;;;;;27.96;55.66;100227.09;5073355;28;20052;-55
2023/07/21 00:13:35;;;;;;;7.82;6.00;;;;;;;27.95;55.68;100234.38;5073413;28;20053;-55
2023/07/21 00:16:04;;;;;;;8.18;6.22;;;;;;;27.98;55.67;100231.28;5073533;28;20045;-55
2023/07/21 00:18:33;;;;;;;7.82;6.10;;;;;;;27.98;55.27;100225.81;5073300;28;20040;-59
2023/07/21 00:21:01;;;;;;;6.18;5.35;;;;;;;27.99;55.26;100224.78;5073339;28;20055;-59
2023/07/21 00:23:31;;;;;;;6.60;5.57;;;;;;;28.01;55.63;100219.16;5072520;28;20044;-59
2023/07/21 00:26:00;;;;;;;6.32;5.30;;;;;;;28.01;55.61;100220.00;5072657;28;20439;-59
2023/07/21 00:28:28;;;;;;;7.72;6.28;;;;;;;28.03;55.50;100227.94;5073290;28;20051;-59
2023/07/21 00:30:55;;;;;;;8.50;6.32;;;;;;;28.04;55.49;100232.34;5060430;28;20397;-59
2023/07/21 00:33:25;;;;;;;5.65;5.03;;;;;;;28.04;55.07;100227.75;5070182;28;20166;-59
2023/07/21 00:35:52;;;;;;;7.70;5.78;;;;;;;28.05;55.42;100221.25;5055464;28;20049;-59
2023/07/21 00:38:21;;;;;;;8.05;6.07;;;;;;;28.06;55.42;100222.94;5062201;28;20064;-59
2023/07/21 00:40:49;;;;;;;8.77;6.65;;;;;;;28.08;55.13;100223.56;5060236;28;20398;-59
2023/07/21 00:43:18;;;;;;;6.25;5.57;;;;;;;28.08;55.03;100218.13;5070289;28;20143;-59
2023/07/21 00:45:48;;;;;;;7.82;6.57;;;;;;;28.09;54.97;100222.53;5059624;28;20053;-59
2023/07/21 00:48:17;;;;;;;8.40;6.00;;;;;;;28.12;55.00;100220.44;5072853;28;20064;-56
2023/07/21 00:50:48;;;;;;;6.95;6.25;;;;;;;28.12;54.80;100221.28;5059219;28;20053;-54
2023/07/21 00:53:15;;;;;;;6.72;5.43;;;;;;;28.13;55.08;100227.56;5055484;28;20049;-55
2023/07/21 00:55:45;;;;;;;7.93;5.95;;;;;;;28.15;54.76;100225.47;5072639;28;20044;-54
2023/07/21 00:58:18;;;;;;;6.88;6.18;;;;;;;28.15;55.19;100209.13;5062517;28;20396;-58
2023/07/21 01:00:46;;;;;;;6.70;6.00;;;;;;;28.15;55.11;100212.69;5069499;28;20515;-59
2023/07/21 01:03:16;;;;;;;7.40;6.32;;;;;;;28.17;54.73;100207.06;5069163;28;20053;-59
2023/07/21 01:05:49;;;;;;;7.72;5.88;;;;;;;28.17;54.80;100213.34;5061943;28;20047;-59
2023/07/21 01:08:19;;;;;;;8.00;6.18;;;;;;;28.18;54.72;100211.44;5061467;28;20045;-59
2023/07/21 01:10:48;;;;;;;6.68;5.50;;;;;;;28.18;55.00;100206.84;5056188;28;20052;-59
2023/07/21 01:13:17;;;;;;;6.10;5.43;;;;;;;28.20;54.71;100201.22;5067646;28;20049;-59
2023/07/21 01:15:49;;;;;;;8.38;6.50;;;;;;;28.20;54.56;100202.06;5063379;28;20392;-59
2023/07/21 01:18:18;;;;;;;7.00;6.20;;;;;;;28.22;54.65;100208.13;5058528;28;20055;-59
2023/07/21 01:20:47;;;;;;;7.85;5.80;;;;;;;28.22;54.56;100199.94;5069826;28;20040;-59
2023/07/21 01:23:17;;;;;;;6.90;5.57;;;;;;;28.23;54.74;100196.16;5060547;28;20404;-59
2023/07/21 01:25:46;;;;;;;6.85;6.13;;;;;;;28.24;54.83;100186.16;5063072;28;20374;-59
2023/07/21 01:28:15;;;;;;;8.20;6.30;;;;;;;28.25;54.81;100191.38;5069402;28;20051;-55
2023/07/21 01:30:45;;;;;;;7.03;6.10;;;;;;;28.26;54.78;100192.22;5057377;28;20496;-55
2023/07/21 01:33:20;;;;;;;8.65;6.30;;;;;;;28.26;54.87;100184.03;5064035;28;20060;-55
2023/07/21 01:35:49;;;;;;;6.95;6.25;;;;;;;28.28;54.41;100181.97;5066400;28;20043;-54
2023/07/21 01:38:22;;;;;;;7.10;6.38;;;;;;;28.27;54.38;100181.09;5072354;28;20526;-55
2023/07/21 01:40:50;;;;;;;6.80;5.95;;;;;;;28.30;54.59;100179.88;5058311;28;20519;-55
2023/07/21 01:43:18;;;;;;;7.63;5.90;;;;;;;28.30;55.06;100168.97;5062338;28;20053;-54
2023/07/21 01:45:46;;;;;;;7.35;6.18;;;;;;;28.30;54.94;100175.25;5054962;28;20504;-54
2023/07/21 01:48:13;;;;;;;6.57;5.47;;;;;;;28.30;54.65;100177.97;5069511;28;20500;-55
2023/07/21 01:50:42;;;;;;;7.78;6.07;;;;;;;28.33;54.70;100179.47;5074403;28;20515;-52
2023/07/21 01:53:19;;;;;;;6.20;5.55;;;;;;;28.32;54.34;100177.78;5071524;28;20059;-49
2023/07/21 01:55:57;;;;;;;6.30;5.18;;;;;;;28.34;54.47;100181.97;5072113;28;20048;-52
2023/07/21 01:58:29;;;;;;;7.88;5.85;;;;;;;28.34;54.90;100181.97;5055086;28;20411;-53
2023/07/21 02:00:58;;;;;;;8.50;6.43;;;;;;;28.36;55.22;100187.25;5063203;28;20049;-55
2023/07/21 02:03:26;;;;;;;7.30;5.75;;;;;;;28.36;54.80;100187.25;5066751;28;20071;-54
2023/07/21 02:05:54;;;;;;;7.32;5.43;;;;;;;28.37;54.89;100188.91;5069784;28;20052;-55
2023/07/21 02:08:21;;;;;;;6.53;5.60;;;;;;;28.37;54.92;100190.81;5058471;28;20484;-54
2023/07/21 02:10:49;;;;;;;8.50;5.85;;;;;;;28.38;54.54;100192.47;5062437;28;20049;-54
2023/07/21 02:13:39;;;;;;;6.95;6.20;;;;;;;28.38;54.81;100185.16;5068464;28;20068;-55
2023/07/21 02:16:07;;;;;;;6.38;5.57;;;;;;;28.39;54.56;100185.97;5070949;28;20040;-54
2023/07/21 02:18:35;;;;;;;7.32;6.13;;;;;;;28.39;54.51;100189.53;5070052;28;20049;-55
2023/07/21 02:21:04;;;;;;;7.38;5.70;;;;;;;28.39;54.46;100183.25;5059039;28;20053;-55
2023/07/21 02:23:31;;;;;;;8.27;5.50;;;;;;;28.40;54.46;100190.38;5056148;28;20049;-54
2023/07/21 02:25:59;;;;;;;5.90;5.00;;;;;;;28.40;54.35;100191.22;5074391;28;20048;-55
2023/07/21 02:28:27;;;;;;;6.70;5.80;;;;;;;28.40;54.30;100191.22;5075567;28;20522;-59
2023/07/21 02:31:02;;;;;;;7.03;5.72;;;;;;;28.42;54.35;100193.75;5075065;28;20056;-60
2023/07/21 02:33:35;;;;;;;6.47;5.45;;;;;;;28.41;54.26;100195.63;5071879;28;20052;-61
2023/07/21 02:36:05;;;;;;;7.07;6.22;;;;;;;28.39;54.36;100194.97;5063850;28;20040;-61
2023/07/21 02:38:32;;;;;;;8.93;6.10;;;;;;;28.38;54.20;100200.66;5065715;28;20404;-61
2023/07/21 02:41:04;;;;;;;9.57;6.53;;;;;;;28.34;53.82;100198.28;5072610;28;20055;-61
2023/07/21 02:43:33;;;;;;;7.63;6.20;;;;;;;28.34;53.52;100209.19;5072868;28;20072;-61
2023/07/21 02:46:01;;;;;;;7.00;5.75;;;;;;;28.33;53.66;100221.13;5057441;28;20049;-61
2023/07/21 02:48:29;;;;;;;7.40;6.20;;;;;;;28.34;53.28;100232.84;5067191;28;20537;-60
2023/07/21 02:51:00;;;;;;;7.15;5.80;;;;;;;28.34;53.58;100257.34;5075863;28;20049;-60
2023/07/21 02:53:31;;;;;;;7.35;6.55;;;;;;;28.32;52.99;100273.06;5070053;28;20052;-60
2023/07/21 02:56:03;;;;;;;8.07;6.57;;;;;;;28.31;52.86;100295.88;5065723;28;20041;-61
2023/07/21 02:58:42;;;;;;;8.68;6.97;;;;;;;28.30;52.40;100299.63;5060422;28;20056;-61
2023/07/21 03:01:12;;;;;;;8.88;6.10;;;;;;;28.28;52.54;100302.56;5057907;28;20052;-62
2023/07/21 03:03:41;;;;;;;7.45;6.35;;;;;;;28.27;52.41;100308.19;5067699;28;20052;-62
2023/07/21 03:06:15;;;;;;;9.38;6.82;;;;;;;28.26;52.20;100320.16;5067148;28;20048;-61
2023/07/21 03:08:43;;;;;;;10.68;7.20;;;;;;;28.25;52.15;100315.75;5060903;28;20052;-61
2023/07/21 03:11:13;;;;;;;8.45;7.15;;;;;;;28.25;52.69;100323.91;5059594;28;20056;-60
2023/07/21 03:14:04;;;;;;;8.43;7.07;;;;;;;28.25;52.55;100327.47;5064118;28;20049;-61
2023/07/21 03:16:33;;;;;;;11.05;7.72;;;;;;;28.25;53.24;100318.47;5072115;28;20049;-61
2023/07/21 03:19:01;;;;;;;9.13;7.10;;;;;;;28.26;53.01;100320.16;5056214;28;20055;-62
2023/07/21 03:21:29;;;;;;;8.95;7.30;;;;;;;28.26;53.46;100310.09;5061547;28;20420;-60
2023/07/21 03:23:57;;;;;;;8.73;7.55;;;;;;;28.27;53.70;100313.66;5061754;28;20067;-61
2023/07/21 03:26:27;;;;;;;9.13;7.10;;;;;;;28.27;53.97;100327.25;5070629;28;20049;-61
2023/07/21 03:28:55;;;;;;;9.77;7.68;;;;;;;28.28;54.61;100320.78;5058596;28;20540;-61
2023/07/21 03:31:25;;;;;;;9.80;7.25;;;;;;;28.27;54.75;100316.38;5066547;28;20055;-61
2023/07/21 03:33:57;;;;;;;8.88;7.97;;;;;;;28.28;54.88;100324.34;5069326;28;20057;-61
2023/07/21 03:36:27;;;;;;;7.80;6.57;;;;;;;28.28;55.38;100324.34;5069939;28;20045;-61
2023/07/21 03:38:54;;;;;;;10.18;7.65;;;;;;;28.28;55.53;100329.81;5068204;28;20045;-61
2023/07/21 03:41:22;;;;;;;9.85;7.97;;;;;;;28.28;56.58;100329.81;5064369;28;20071;-61
2023/07/21 03:43:50;;;;;;;11.73;8.43;;;;;;;28.29;56.90;100325.19;5059875;28;20444;-61
2023/07/21 03:46:20;;;;;;;9.73;7.65;;;;;;;28.30;56.99;100337.75;5070654;28;20496;-61
2023/07/21 03:49:03;;;;;;;8.63;7.18;;;;;;;28.30;56.87;100333.13;5080485;28;20053;-61
2023/07/21 03:51:32;;;;;;;8.88;7.55;;;;;;;28.31;57.04;100340.25;5071805;28;20055;-61
2023/07/21 03:53:59;;;;;;;7.93;7.13;;;;;;;28.31;57.52;100339.41;5070807;28;20045;-61
2023/07/21 03:56:27;;;;;;;12.32;7.70;;;;;;;28.33;57.61;100337.34;5058011;28;20500;-61
2023/07/21 03:58:55;;;;;;;9.35;7.05;;;;;;;28.34;57.22;100341.75;5065112;28;20053;-61
2023/07/21 04:01:24;;;;;;;8.02;6.32;;;;;;;28.35;56.51;100348.88;5066909;28;20051;-61
2023/07/21 04:03:52;;;;;;;8.90;7.55;;;;;;;28.36;56.08;100350.59;5072092;28;20044;-61
2023/07/21 04:06:23;;;;;;;7.90;6.72;;;;;;;28.37;56.67;100346.81;5071902;28;20055;-61
2023/07/21 04:08:51;;;;;;;11.82;8.77;;;;;;;28.38;58.04;100351.22;5075007;28;20055;-61
2023/07/21 04:11:19;;;;;;;10.35;7.63;;;;;;;28.39;58.71;100350.16;5073423;28;20044;-61
2023/07/21 04:13:46;;;;;;;8.82;7.57;;;;;;;28.39;59.13;100352.88;5071478;28;20051;-61
2023/07/21 04:16:14;;;;;;;12.13;7.90;;;;;;;28.39;58.93;100352.06;5073147;28;20036;-61
2023/07/21 04:18:41;;;;;;;8.95;7.90;;;;;;;28.38;59.16;100353.09;5073208;28;20036;-61
2023/07/21 04:21:09;;;;;;;11.25;8.15;;;;;;;28.37;59.04;100355.00;5073290;28;20068;-61
2023/07/21 04:23:37;;;;;;;9.05;7.57;;;;;;;28.37;58.36;100356.88;5071389;28;20061;-61
2023/07/21 04:26:06;;;;;;;10.60;7.40;;;;;;;28.38;58.68;100356.66;5067154;28;20056;-61
2023/07/21 04:28:34;;;;;;;9.95;7.82;;;;;;;28.38;58.66;100356.66;5063051;28;20049;-61
2023/07/21 04:31:01;;;;;;;11.70;8.20;;;;;;;28.39;58.34;100354.78;5059332;28;20425;-61
2023/07/21 04:33:38;;;;;;;10.13;8.38;;;;;;;28.40;58.72;100359.16;5068962;28;20052;-62
2023/07/21 04:36:05;;;;;;;13.45;8.68;;;;;;;28.39;58.59;100346.59;5060729;28;20381;-62
2023/07/21 04:38:33;;;;;;;8.35;7.47;;;;;;;28.38;58.73;100348.50;5061009;28;20523;-61
2023/07/21 04:41:08;;;;;;;9.77;7.40;;;;;;;28.37;58.59;100352.28;5055504;28;20045;-61
2023/07/21 04:43:36;;;;;;;10.07;8.23;;;;;;;28.37;58.44;100356.88;5058296;28;20063;-62
2023/07/21 04:46:03;;;;;;;10.10;7.75;;;;;;;28.37;58.31;100367.78;5064469;28;20524;-62
2023/07/21 04:48:37;;;;;;;10.00;7.93;;;;;;;28.36;58.07;100361.50;5055169;28;20053;-62
2023/07/21 04:51:10;;;;;;;9.23;7.90;;;;;;;28.35;58.33;100366.03;5056969;28;20060;-62
2023/07/21 04:53:37;;;;;;;9.73;8.38;;;;;;;28.37;58.32;100359.59;5066478;28;20049;-62
2023/07/21 04:56:06;;;;;;;8.90;7.72;;;;;;;28.37;58.53;100356.88;5064180;28;20488;-62
2023/07/21 04:58:41;;;;;;;11.70;7.40;;;;;;;28.36;58.25;100356.03;5058120;28;20053;-61
2023/07/21 05:01:09;;;;;;;8.95;7.63;;;;;;;28.38;58.15;100353.94;5073161;28;20400;-61
2023/07/21 05:03:36;;;;;;;9.68;7.05;;;;;;;28.38;57.85;100348.50;5065597;28;20436;-61
2023/07/21 05:06:04;;;;;;;10.90;7.65;;;;;;;28.40;57.99;100354.59;5069643;28;20053;-62
2023/07/21 05:08:32;;;;;;;10.90;8.85;;;;;;;28.41;57.95;100353.53;5068175;28;20060;-62
2023/07/21 05:11:02;;;;;;;9.20;7.95;;;;;;;28.41;58.34;100358.16;5056442;28;20049;-62
2023/07/21 05:13:29;;;;;;;10.50;8.02;;;;;;;28.42;58.25;100352.50;5064951;28;20108;-62
2023/07/21 05:16:16;;;;;;;10.27;8.15;;;;;;;28.43;58.24;100350.59;5054361;28;20059;-61
2023/07/21 05:19:03;;;;;;;12.68;8.45;;;;;;;28.43;58.35;100353.31;5070215;28;20048;-61
2023/07/21 05:21:49;;;;;;;9.68;8.55;;;;;;;28.42;58.32;100352.50;5078827;28;20519;-61
2023/07/21 05:24:43;;;;;;;10.73;7.82;;;;;;;28.43;58.45;100345.16;5050311;28;20053;-61
2023/07/21 05:27:13;;;;;;;9.10;7.97;;;;;;;28.43;58.58;100337.81;5065275;28;20045;-62
2023/07/21 05:29:48;;;;;;;8.75;7.85;;;;;;;28.43;58.80;100346.00;5064651;28;20071;-62
2023/07/21 05:32:16;;;;;;;9.75;8.25;;;;;;;28.43;58.95;100346.00;5055479;28;20072;-63
2023/07/21 05:34:49;;;;;;;10.18;8.55;;;;;;;28.44;59.11;100344.97;5070261;28;20048;-62
2023/07/21 05:37:17;;;;;;;8.55;7.65;;;;;;;28.44;58.84;100336.81;5063424;28;20049;-62
2023/07/21 05:39:47;;;;;;;11.40;8.13;;;;;;;28.46;58.13;100329.25;5065551;28;20063;-62
2023/07/21 05:42:18;;;;;;;9.40;7.63;;;;;;;28.47;58.21;100330.09;5056389;28;20049;-62
2023/07/21 05:44:46;;;;;;;8.82;7.53;;;;;;;28.47;58.50;100328.19;5069997;28;20443;-62
2023/07/21 05:47:19;;;;;;;9.98;8.02;;;;;;;28.48;58.49;100329.91;5061875;28;20430;-62
2023/07/21 05:49:51;;;;;;;8.88;7.97;;;;;;;28.51;58.34;100329.47;5066128;28;20535;-62
2023/07/21 05:52:19;;;;;;;9.63;7.57;;;;;;;28.52;58.07;100322.13;5069781;28;20076;-62
2023/07/21 05:54:47;;;;;;;11.35;8.25;;;;;;;28.53;58.37;100312.94;5071586;28;20044;-62
2023/07/21 05:57:17;;;;;;;10.73;8.10;;;;;;;28.56;58.35;100318.81;5069605;28;20052;-62
2023/07/21 05:59:48;;;;;;;10.05;8.27;;;;;;;28.56;58.53;100317.97;5057431;28;20408;-62
2023/07/21 06:02:16;;;;;;;11.88;8.13;;;;;;;28.58;58.66;100313.16;5059728;28;20442;-61
2023/07/21 06:04:51;;;;;;;10.48;7.97;;;;;;;28.59;58.81;100317.56;5066710;28;20049;-59
2023/07/21 06:07:45;;;;;;;10.02;7.80;;;;;;;28.61;58.88;100323.66;5073711;28;20052;-56
2023/07/21 06:10:40;;;;;;;8.95;7.75;;;;;;;28.63;58.03;100321.53;5065704;28;20060;-56
2023/07/21 06:13:29;;;;;;;9.27;8.20;;;;;;;28.65;58.45;100319.47;5068790;28;20064;-56
2023/07/21 06:16:14;;;;;;;11.00;7.38;;;;;;;28.66;57.96;100315.69;5070049;28;20060;-60
2023/07/21 06:18:43;;;;;;;9.40;7.95;;;;;;;28.68;57.83;100305.41;5057829;28;20049;-61
2023/07/21 06:21:14;;;;;;;8.07;6.80;;;;;;;28.69;58.06;100309.00;5071259;28;20047;-60
2023/07/21 06:23:44;;;;;;;8.13;7.28;;;;;;;28.69;57.79;100306.28;5059687;28;20059;-60
2023/07/21 06:26:11;;;;;;;8.45;7.22;;;;;;;28.71;57.67;100304.19;5070086;28;20112;-55
2023/07/21 06:28:39;;;;;;;9.20;7.28;;;;;;;28.71;57.67;100307.72;5068098;28;20040;-54
2023/07/21 06:31:10;;;;;;;8.77;7.32;;;;;;;28.71;57.56;100310.47;5059397;28;20519;-55
2023/07/21 06:33:56;;;;;;;8.40;7.50;;;;;;;28.72;58.01;100322.19;5064127;28;20059;-54
2023/07/21 06:36:42;;;;;;;10.13;6.95;;;;;;;28.73;57.80;100319.28;5070460;28;20392;-60
2023/07/21 06:39:25;;;;;;;8.95;7.95;;;;;;;28.74;57.41;100315.50;5071844;28;20088;-60
2023/07/21 06:42:19;;;;;;;9.55;7.18;;;;;;;28.74;57.70;100323.69;5072743;28;20059;-60
2023/07/21 06:45:09;;;;;;;9.23;7.38;;;;;;;28.75;57.59;100319.06;5060322;28;20076;-60
2023/07/21 06:47:55;;;;;;;8.93;6.82;;;;;;;28.76;57.88;100315.28;5061469;28;20075;-55
2023/07/21 06:50:49;;;;;;;8.55;7.57;;;;;;;28.78;58.17;100307.75;5052456;28;20053;-55
2023/07/21 06:53:20;;;;;;;9.07;7.30;;;;;;;28.79;58.25;100303.97;5056935;28;20057;-54
2023/07/21 06:55:51;;;;;;;8.98;7.35;;;;;;;28.79;58.15;100299.38;5067450;28;20061;-55
2023/07/21 06:58:19;;;;;;;10.73;7.32;;;;;;;28.80;57.90;100298.34;5068779;28;20431;-53
2023/07/21 07:00:46;;;;;;;8.18;7.30;;;;;;;28.81;57.59;100302.75;5073878;28;20067;-51
2023/07/21 07:03:14;;;;;;;10.00;7.53;;;;;;;28.82;57.71;100285.34;5073395;28;20048;-53
2023/07/21 07:05:45;;;;;;;8.18;6.82;;;;;;;28.85;57.63;100291.44;5067575;28;20040;-54
2023/07/21 07:08:13;;;;;;;15.85;7.53;;;;;;;28.85;57.89;100284.09;5068807;28;20053;-59
2023/07/21 07:10:40;;;;;;;8.68;7.72;;;;;;;28.86;59.02;100284.94;5072042;28;20063;-58
2023/07/21 07:13:08;;;;;;;10.18;7.50;;;;;;;28.84;59.73;100282.41;5069260;28;20049;-58
2023/07/21 07:15:36;;;;;;;11.02;7.05;;;;;;;28.82;60.36;100277.16;5063575;28;20063;-59
2023/07/21 07:18:04;;;;;;;9.52;7.97;;;;;;;28.80;60.59;100275.69;5073565;28;20048;-58
2023/07/21 07:20:32;;;;;;;9.40;7.50;;;;;;;28.79;60.88;100277.56;5059492;28;20056;-58
2023/07/21 07:22:59;;;;;;;9.60;7.57;;;;;;;28.76;60.77;100271.69;5072394;28;20048;-58
2023/07/21 07:25:27;;;;;;;9.70;7.38;;;;;;;28.74;61.20;100260.19;5064900;28;20136;-58
2023/07/21 07:27:54;;;;;;;9.93;7.45;;;;;;;28.73;61.18;100266.69;5062824;28;20048;-53
2023/07/21 07:30:22;;;;;;;8.90;7.25;;;;;;;28.71;61.46;100272.31;5059291;28;20049;-51
2023/07/21 07:32:49;;;;;;;10.05;7.13;;;;;;;28.72;61.23;100274.00;5074481;28;20048;-50
2023/07/21 07:35:17;;;;;;;8.80;7.60;;;;;;;28.71;61.76;100282.38;5066173;28;20041;-54
2023/07/21 07:37:44;;;;;;;11.80;8.63;;;;;;;28.70;61.79;100280.72;5069478;28;20068;-53
2023/07/21 07:40:12;;;;;;;9.32;7.90;;;;;;;28.69;61.62;100276.31;5059324;28;20057;-51
2023/07/21 07:42:40;;;;;;;10.18;8.40;;;;;;;28.68;61.79;100266.44;5073563;28;20476;-52
2023/07/21 07:45:08;;;;;;;8.68;7.85;;;;;;;28.67;61.97;100267.50;5071296;28;20044;-54
2023/07/21 07:47:35;;;;;;;10.88;8.70;;;;;;;28.65;61.90;100259.56;5074890;28;20047;-58
2023/07/21 07:50:03;;;;;;;13.27;9.02;;;;;;;28.66;61.79;100261.22;5071854;28;20064;-58
2023/07/21 07:52:31;;;;;;;10.73;8.00;;;;;;;28.66;61.82;100261.22;5070157;28;20052;-58
2023/07/21 07:54:58;;;;;;;9.82;7.63;;;;;;;28.67;61.48;100245.72;5073612;28;20052;-58
2023/07/21 07:57:26;;;;;;;10.65;8.02;;;;;;;28.69;61.45;100235.47;5073282;28;20044;-58
2023/07/21 07:59:54;;;;;;;12.68;8.77;;;;;;;28.70;61.52;100235.25;5071818;28;20048;-59
2023/07/21 08:02:22;;;;;;;10.38;8.90;;;;;;;28.70;61.64;100245.31;5074643;28;20059;-59
2023/07/21 08:04:49;;;;;;;12.35;8.80;;;;;;;28.71;61.61;100247.81;5064446;28;20051;-59
2023/07/21 08:07:18;;;;;;;9.45;7.80;;;;;;;28.72;61.25;100233.13;5072931;28;20041;-52
2023/07/21 08:09:45;;;;;;;10.45;7.70;;;;;;;28.74;61.07;100236.50;5071454;28;20052;-52
2023/07/21 08:12:13;;;;;;;11.15;8.60;;;;;;;28.77;61.18;100216.19;5060838;28;20052;-52
2023/07/21 08:14:40;;;;;;;8.77;6.88;;;;;;;28.79;60.65;100209.47;5072739;28;20047;-54
2023/07/21 08:17:08;;;;;;;12.35;8.57;;;;;;;28.82;60.99;100210.94;5072636;28;20044;-58
2023/07/21 08:19:36;;;;;;;12.55;7.78;;;;;;;28.83;60.63;100201.72;5071919;28;20052;-59
2023/07/21 08:22:07;;;;;;;10.57;7.45;;;;;;;28.84;60.27;100197.94;5072371;28;20045;-58
2023/07/21 08:24:35;;;;;;;12.05;7.85;;;;;;;28.85;60.27;100191.47;5072707;28;20052;-58
2023/07/21 08:27:03;;;;;;;9.60;7.78;;;;;;;28.87;60.47;100192.06;5072717;28;20044;-58
2023/07/21 08:29:30;;;;;;;8.93;7.53;;;;;;;28.88;60.40;100185.56;5070898;28;20439;-58
2023/07/21 08:31:57;;;;;;;10.25;7.53;;;;;;;28.90;60.21;100175.31;5072856;28;20044;-58
2023/07/21 08:34:25;;;;;;;9.07;7.10;;;;;;;28.93;60.44;100174.06;5063789;28;20049;-58
2023/07/21 08:36:53;;;;;;;9.77;7.63;;;;;;;28.93;60.32;100149.53;5069126;28;20048;-58
2023/07/21 08:39:21;;;;;;;8.60;7.68;;;;;;;28.94;60.15;100146.59;5067208;28;20057;-58
2023/07/21 08:41:50;;;;;;;9.43;8.10;;;;;;;28.94;59.95;100152.03;5060682;28;20052;-58
2023/07/21 08:44:19;;;;;;;7.95;7.10;;;;;;;28.95;59.86;100142.81;5063145;28;20055;-58
2023/07/21 08:46:47;;;;;;;8.18;7.43;;;;;;;28.97;60.06;100140.75;5068854;28;20064;-58
2023/07/21 08:49:19;;;;;;;10.65;7.22;;;;;;;28.98;59.60;100144.31;5070515;28;20048;-58
2023/07/21 08:51:47;;;;;;;;;;;;;;;28.98;59.72;100153.31;5062760;28;20055;-58
2023/07/21 08:54:14;;;;;;;9.80;7.90;;;;;;;29.01;59.94;100171.16;5062394;28;19920;-58
2023/07/21 08:56:41;;;;;;;9.88;7.43;;;;;;;29.02;59.40;100164.66;5069749;28;20051;-58
2023/07/21 08:59:09;;;;;;;9.68;7.50;;;;;;;29.03;59.83;100145.34;5061744;28;20037;-58
2023/07/21 09:01:36;;;;;;;8.60;7.10;;;;;;;29.03;59.84;100145.34;5061372;28;20051;-58
2023/07/21 09:04:23;;;;;;;8.63;7.25;;;;;;;29.04;59.60;100147.00;5072514;28;20048;-58
2023/07/21 09:06:51;;;;;;;10.80;8.13;;;;;;;29.05;59.55;100135.09;5057984;28;20049;-58
2023/07/21 09:09:22;;;;;;;9.20;7.88;;;;;;;29.06;59.65;100128.56;5067291;28;20048;-58
2023/07/21 09:12:00;;;;;;;11.70;7.70;;;;;;;29.07;59.66;100116.63;5064534;28;20048;-58
2023/07/21 09:14:38;;;;;;;10.45;8.20;;;;;;;29.07;59.27;100111.16;5072551;28;20273;-58
2023/07/21 09:17:08;;;;;;;8.52;7.32;;;;;;;29.08;59.26;100117.44;5059155;28;20044;-58
2023/07/21 09:19:38;;;;;;;9.20;7.78;;;;;;;29.09;59.36;100110.97;5063445;28;20072;-58
2023/07/21 09:22:06;;;;;;;8.60;7.68;;;;;;;29.10;59.04;100120.81;5067921;28;20051;-58
2023/07/21 09:24:35;;;;;;;9.32;7.28;;;;;;;29.11;58.98;100124.38;5069268;28;20052;-58
2023/07/21 09:27:16;;;;;;;9.88;8.20;;;;;;;29.12;58.46;100128.75;5059999;28;20063;-58
2023/07/21 09:29:45;;;;;;;9.82;7.85;;;;;;;29.13;58.46;100146.78;5060840;28;20048;-54
2023/07/21 09:32:17;;;;;;;11.55;7.65;;;;;;;29.17;57.99;100161.66;5069159;28;20040;-51
2023/07/21 09:35:05;;;;;;;9.15;7.43;;;;;;;29.24;56.77;100181.56;5064929;28;20049;-50
2023/07/21 09:37:33;;;;;;;9.65;7.60;;;;;;;29.26;56.66;100191.22;5065197;28;20044;-50
2023/07/21 09:40:05;;;;;;;9.63;7.60;;;;;;;29.28;56.50;100186.38;5057122;28;20053;-50
2023/07/21 09:42:32;;;;;;;10.95;8.40;;;;;;;29.28;56.42;100169.19;5068480;28;20052;-50
2023/07/21 09:45:00;;;;;;;9.32;7.40;;;;;;;29.26;56.41;100169.41;5063423;28;20496;-52
2023/07/21 09:47:27;;;;;;;8.05;7.25;;;;;;;29.27;56.59;100151.16;5065790;28;20060;-59
2023/07/21 09:49:58;;;;;;;10.20;7.45;;;;;;;29.27;56.73;100152.00;5070873;28;20049;-58
2023/07/21 09:52:27;;;;;;;10.25;7.97;;;;;;;29.27;56.34;100149.28;5071298;28;20067;-58
2023/07/21 09:55:06;;;;;;;9.88;7.85;;;;;;;29.28;56.21;100140.03;5071602;28;20048;-58
2023/07/21 09:57:40;;;;;;;10.38;8.10;;;;;;;29.29;56.09;100129.97;5071810;28;20048;-53
2023/07/21 10:00:12;;;;;;;8.93;8.02;;;;;;;29.29;56.27;100113.59;5070617;28;20048;-53
2023/07/21 10:02:42;;;;;;;11.20;7.85;;;;;;;29.30;55.82;100112.56;5061847;28;20048;-53
2023/07/21 10:05:10;;;;;;;10.30;7.38;;;;;;;29.30;56.07;100104.41;5070934;28;20049;-58
2023/07/21 10:07:42;;;;;;;12.30;7.82;;;;;;;29.35;55.63;100112.75;5055308;28;20060;-58
2023/07/21 10:10:11;;;;;;;11.27;8.45;;;;;;;29.41;55.38;100133.72;5072105;28;20052;-59
2023/07/21 10:12:51;;;;;;;9.82;8.30;;;;;;;29.42;55.34;100161.81;5071230;28;20056;-59
2023/07/21 10:15:29;;;;;;;8.77;7.57;;;;;;;29.42;55.33;100179.03;5072535;28;20044;-58
2023/07/21 10:18:07;;;;;;;10.82;8.32;;;;;;;29.42;55.58;100192.66;5070173;28;20047;-59
2023/07/21 10:20:47;;;;;;;11.60;8.60;;;;;;;29.43;55.95;100202.50;5063314;28;20048;-58
2023/07/21 10:23:18;;;;;;;9.48;8.15;;;;;;;29.43;55.74;100188.88;5071206;28;20049;-59
2023/07/21 10:25:52;;;;;;;10.32;8.85;;;;;;;29.42;55.96;100186.38;5069631;28;20060;-59
2023/07/21 10:28:44;;;;;;;10.02;8.60;;;;;;;29.41;55.84;100190.13;5070961;28;20048;-55
2023/07/21 10:31:21;;;;;;;8.55;7.63;;;;;;;29.39;55.82;100179.44;5070073;28;20048;-55
2023/07/21 10:34:07;;;;;;;9.07;7.55;;;;;;;29.37;55.92;100128.88;5053216;28;20060;-55
2023/07/21 10:36:53;;;;;;;11.40;8.30;;;;;;;29.36;55.72;100065.34;5065284;28;20037;-55
2023/07/21 10:39:29;;;;;;;11.30;8.27;;;;;;;29.35;55.67;100085.50;5061669;28;20045;-55
2023/07/21 10:42:05;;;;;;;9.75;7.03;;;;;;;29.34;55.41;100141.09;5060679;28;20484;-55
2023/07/21 10:44:39;;;;;;;9.10;7.60;;;;;;;29.34;55.33;100165.63;5057944;28;20056;-55
2023/07/21 10:47:21;;;;;;;9.68;7.35;;;;;;;29.34;55.38;100187.44;5071803;28;20507;-55
2023/07/21 10:49:49;;;;;;;9.75;7.80;;;;;;;29.34;55.78;100186.59;5061995;28;20044;-55
2023/07/21 10:52:17;;;;;;;10.27;7.28;;;;;;;29.34;55.76;100200.22;5068132;28;20050;-55
2023/07/21 10:54:44;;;;;;;11.63;8.02;;;;;;;29.35;55.77;100201.91;5072757;28;20055;-55
2023/07/21 10:57:12;;;;;;;8.48;6.65;;;;;;;29.35;55.64;100216.38;5060514;28;20052;-55
2023/07/21 10:59:39;;;;;;;9.50;7.32;;;;;;;29.35;55.47;100205.47;5067869;28;20041;-54
2023/07/21 11:02:07;;;;;;;9.82;7.55;;;;;;;29.38;55.39;100212.38;5067884;28;20053;-54
2023/07/21 11:04:38;;;;;;;9.32;7.45;;;;;;;29.39;55.27;100216.78;5070667;28;20052;-54
2023/07/21 11:07:06;;;;;;;8.75;7.03;;;;;;;29.39;55.54;100225.78;5060785;28;20852;-54
2023/07/21 11:09:34;;;;;;;9.60;7.88;;;;;;;29.40;54.97;100249.28;5067462;28;20500;-52
2023/07/21 11:12:03;;;;;;;12.05;7.13;;;;;;;29.42;55.13;100251.81;5068590;28;20052;-56
2023/07/21 11:14:32;;;;;;;8.85;7.78;;;;;;;29.44;55.00;100257.88;5067785;28;20504;-56
2023/07/21 11:17:02;;;;;;;10.40;6.78;;;;;;;29.43;55.00;100267.94;5070323;28;20044;-57
2023/07/21 11:19:33;;;;;;;11.75;7.53;;;;;;;29.44;55.33;100274.25;5075095;28;20048;-58
2023/07/21 11:22:03;;;;;;;9.85;7.13;;;;;;;29.43;55.39;100278.03;5074084;28;20049;-58
2023/07/21 11:24:31;;;;;;;7.93;6.55;;;;;;;29.43;55.51;100287.03;5072275;28;20049;-58
2023/07/21 11:27:07;;;;;;;10.23;7.05;;;;;;;29.43;55.92;100295.22;5074238;28;20404;-58
2023/07/21 11:29:40;;;;;;;10.88;8.13;;;;;;;29.43;55.63;100291.66;5073945;28;20049;-57
2023/07/21 11:32:22;;;;;;;8.65;7.35;;;;;;;29.44;55.47;100293.31;5073111;28;20503;-58
2023/07/21 11:34:58;;;;;;;8.05;7.22;;;;;;;29.47;54.79;100287.47;5060813;28;20053;-58
2023/07/21 11:37:45;;;;;;;10.88;7.05;;;;;;;29.47;54.81;100279.28;5066528;28;20488;-56
2023/07/21 11:40:24;;;;;;;9.98;7.53;;;;;;;29.46;54.94;100292.06;5071448;28;20049;-55
2023/07/21 11:42:52;;;;;;;9.63;7.65;;;;;;;29.46;54.64;100286.63;5063148;28;20058;-55